Latest Conditions
At L.F.Wade Int. Airport
Recorded at 10:55 pm
Mostly Cloudy
Temp.: 
20°C/68°F
Humidity: 
64%
Wind: 
NW 14KT
or 16mph
Island Observations
Observations
Saturday, December 20, 2014

Observations are in local time and taken at least once an hour, or upon the start and end of specified events such as showers and thunderstorms.

Time Sky / Weather Wind Speed/Gusts Temp. R.H. Pressure
     knots (mph)  °C (°F)  %  mb / "Hg
 22:55 Mostly Cloudy  NW 14/0 (16/0) 20(68) 64 1017 / 30.04
 21:55 Mostly Cloudy  WNW 12/0 (14/0) 20(68) 64 1017 / 30.04
 20:55 Mostly Cloudy  NW 13/0 (15/0) 20(68) 64 1017 / 30.03
 19:55 Mostly Cloudy  NW 13/0 (15/0) 20(68) 67 1017 / 30.02
 18:55 Mostly Cloudy  NNW 14/0 (16/0) 20(68) 69 1016 / 30.00
 17:55 Mostly Cloudy  WNW 10/0 (12/0) 20(68) 70 1015 / 29.98
 16:55 Mostly Cloudy  NW 11/0 (13/0) 20(68) 75 1015 / 29.97
 15:55 Mostly Cloudy  NW 11/0 (13/0) 21(70) 70 1015 / 29.98
 14:55 Mostly Cloudy  NW 13/0 (15/0) 21(69) 71 1015 / 29.96
 13:55 Mostly Cloudy  W 13/0 (15/0) 22(71) 67 1014 / 29.95
 12:55 Mostly Cloudy  W 12/0 (14/0) 22(72) 67 1015 / 29.97
 11:55 Mostly Cloudy  W 13/0 (15/0) 22(71) 69 1016 / 30.00
 10:55 Mostly Cloudy Showers WNW 8/0 (9/0) 21(70) 77 1016 / 30.01
 10:23 Mostly Cloudy Showers WNW 8/0 (9/0) 20(69) 81 1017 / 30.02
 09:55 Mostly Cloudy Showers W 7/0 (8/0) 20(69) 81 1017 / 30.02
 09:33 Mostly Cloudy Showers W 9/0 (10/0) 20(68) 79 1016 / 30.01
 09:18 Mostly Cloudy Showers WSW 8/0 (9/0) 20(68) 79 1016 / 30.01
 08:55 Mostly Cloudy Showers W 7/0 (8/0) 20(68) 79 1016 / 30.00
 07:55 Mostly Cloudy  WNW 9/0 (10/0) 19(66) 82 1016 / 29.99
 06:55 Mostly Cloudy Showers W 8/0 (9/0) 18(65) 88 1015 / 29.98
 06:46 Partly Cloudy Showers W 7/0 (8/0) 19(66) 76 1015 / 29.98
 05:55 Partly Cloudy  W 8/0 (9/0) 19(66) 77 1015 / 29.97
 04:55 Partly Cloudy  W 10/0 (12/0) 19(66) 76 1015 / 29.97
 03:55 Mostly Cloudy  W 9/0 (10/0) 19(66) 76 1015 / 29.97
Observations from our AWOS sites are available here (password and username are both 'guest').